sensor_id;sensor_type;location;lat;lon;timestamp;P1;durP1;ratioP1;P2;durP2;ratioP2
25381;SDS011;16307;42.896;20.874;2022-12-18T00:02:41;4.97;;;2.60;;
25381;SDS011;16307;42.896;20.874;2022-12-18T00:05:27;6.32;;;2.60;;
25381;SDS011;16307;42.896;20.874;2022-12-18T00:08:13;3.75;;;2.40;;
25381;SDS011;16307;42.896;20.874;2022-12-18T00:11:07;4.13;;;2.78;;
25381;SDS011;16307;42.896;20.874;2022-12-18T00:13:55;5.47;;;2.63;;
25381;SDS011;16307;42.896;20.874;2022-12-18T00:16:45;5.22;;;2.60;;
25381;SDS011;16307;42.896;20.874;2022-12-18T00:19:32;3.40;;;2.40;;
25381;SDS011;16307;42.896;20.874;2022-12-18T00:22:18;4.50;;;2.13;;
25381;SDS011;16307;42.896;20.874;2022-12-18T00:25:04;3.70;;;2.40;;
25381;SDS011;16307;42.896;20.874;2022-12-18T00:27:50;3.42;;;2.25;;
25381;SDS011;16307;42.896;20.874;2022-12-18T00:30:37;4.85;;;2.63;;
25381;SDS011;16307;42.896;20.874;2022-12-18T00:33:23;2.97;;;2.28;;
25381;SDS011;16307;42.896;20.874;2022-12-18T00:38:59;5.68;;;2.67;;
25381;SDS011;16307;42.896;20.874;2022-12-18T00:41:46;4.53;;;2.13;;
25381;SDS011;16307;42.896;20.874;2022-12-18T00:44:51;4.68;;;2.83;;
25381;SDS011;16307;42.896;20.874;2022-12-18T00:47:37;4.30;;;2.58;;
25381;SDS011;16307;42.896;20.874;2022-12-18T00:50:24;4.00;;;2.53;;
25381;SDS011;16307;42.896;20.874;2022-12-18T00:53:11;6.72;;;2.60;;
25381;SDS011;16307;42.896;20.874;2022-12-18T00:55:57;3.13;;;2.30;;
25381;SDS011;16307;42.896;20.874;2022-12-18T00:58:44;4.25;;;2.72;;
25381;SDS011;16307;42.896;20.874;2022-12-18T01:01:30;6.20;;;2.33;;
25381;SDS011;16307;42.896;20.874;2022-12-18T01:04:16;4.00;;;2.30;;
25381;SDS011;16307;42.896;20.874;2022-12-18T01:07:03;4.13;;;2.60;;
25381;SDS011;16307;42.896;20.874;2022-12-18T01:09:49;5.00;;;2.70;;
25381;SDS011;16307;42.896;20.874;2022-12-18T01:12:35;4.20;;;2.70;;
25381;SDS011;16307;42.896;20.874;2022-12-18T01:15:24;4.55;;;2.70;;
25381;SDS011;16307;42.896;20.874;2022-12-18T01:18:12;5.28;;;2.42;;
25381;SDS011;16307;42.896;20.874;2022-12-18T01:20:58;3.10;;;2.60;;
25381;SDS011;16307;42.896;20.874;2022-12-18T01:23:44;4.63;;;2.55;;
25381;SDS011;16307;42.896;20.874;2022-12-18T01:26:31;4.53;;;2.88;;
25381;SDS011;16307;42.896;20.874;2022-12-18T01:29:17;5.10;;;2.85;;
25381;SDS011;16307;42.896;20.874;2022-12-18T01:32:03;3.88;;;3.00;;
25381;SDS011;16307;42.896;20.874;2022-12-18T01:34:50;6.85;;;2.78;;
25381;SDS011;16307;42.896;20.874;2022-12-18T01:37:36;5.18;;;3.13;;
25381;SDS011;16307;42.896;20.874;2022-12-18T01:40:22;4.70;;;3.22;;
25381;SDS011;16307;42.896;20.874;2022-12-18T01:43:10;5.53;;;3.20;;
25381;SDS011;16307;42.896;20.874;2022-12-18T01:45:56;7.30;;;3.30;;
25381;SDS011;16307;42.896;20.874;2022-12-18T01:48:46;6.55;;;3.55;;
25381;SDS011;16307;42.896;20.874;2022-12-18T01:51:34;4.38;;;2.30;;
25381;SDS011;16307;42.896;20.874;2022-12-18T01:54:20;4.90;;;3.40;;
25381;SDS011;16307;42.896;20.874;2022-12-18T01:57:06;6.22;;;3.42;;
25381;SDS011;16307;42.896;20.874;2022-12-18T01:59:53;8.25;;;3.17;;
25381;SDS011;16307;42.896;20.874;2022-12-18T02:02:43;4.53;;;3.42;;
25381;SDS011;16307;42.896;20.874;2022-12-18T02:17:52;5.10;;;3.50;;
25381;SDS011;16307;42.896;20.874;2022-12-18T02:20:47;5.70;;;3.72;;
25381;SDS011;16307;42.896;20.874;2022-12-18T02:23:45;5.80;;;3.50;;
25381;SDS011;16307;42.896;20.874;2022-12-18T02:26:36;6.88;;;4.10;;
25381;SDS011;16307;42.896;20.874;2022-12-18T02:29:24;8.80;;;4.03;;
25381;SDS011;16307;42.896;20.874;2022-12-18T02:32:16;6.53;;;4.00;;
25381;SDS011;16307;42.896;20.874;2022-12-18T02:35:06;8.00;;;4.35;;
25381;SDS011;16307;42.896;20.874;2022-12-18T02:38:01;6.93;;;4.32;;
25381;SDS011;16307;42.896;20.874;2022-12-18T02:40:52;7.57;;;4.53;;
25381;SDS011;16307;42.896;20.874;2022-12-18T02:43:41;6.32;;;4.22;;
25381;SDS011;16307;42.896;20.874;2022-12-18T02:46:36;7.28;;;4.85;;
25381;SDS011;16307;42.896;20.874;2022-12-18T02:55:49;7.32;;;4.55;;
25381;SDS011;16307;42.896;20.874;2022-12-18T03:04:55;10.27;;;6.20;;
25381;SDS011;16307;42.896;20.874;2022-12-18T03:11:07;10.40;;;5.65;;
25381;SDS011;16307;42.896;20.874;2022-12-18T03:13:55;9.75;;;6.35;;
25381;SDS011;16307;42.896;20.874;2022-12-18T03:16:43;11.00;;;6.63;;
25381;SDS011;16307;42.896;20.874;2022-12-18T03:19:31;11.05;;;6.20;;
25381;SDS011;16307;42.896;20.874;2022-12-18T03:22:20;11.13;;;6.45;;
25381;SDS011;16307;42.896;20.874;2022-12-18T03:25:11;11.07;;;6.65;;
25381;SDS011;16307;42.896;20.874;2022-12-18T03:28:00;13.43;;;7.68;;
25381;SDS011;16307;42.896;20.874;2022-12-18T03:30:49;12.45;;;7.35;;
25381;SDS011;16307;42.896;20.874;2022-12-18T03:33:52;11.38;;;6.72;;
25381;SDS011;16307;42.896;20.874;2022-12-18T03:36:44;12.27;;;6.53;;
25381;SDS011;16307;42.896;20.874;2022-12-18T03:39:32;11.23;;;6.40;;
25381;SDS011;16307;42.896;20.874;2022-12-18T03:48:13;12.13;;;6.72;;
25381;SDS011;16307;42.896;20.874;2022-12-18T03:51:06;10.20;;;6.03;;
25381;SDS011;16307;42.896;20.874;2022-12-18T03:53:59;11.70;;;7.15;;
25381;SDS011;16307;42.896;20.874;2022-12-18T03:56:52;12.95;;;6.22;;
25381;SDS011;16307;42.896;20.874;2022-12-18T03:59:43;11.32;;;6.35;;
25381;SDS011;16307;42.896;20.874;2022-12-18T04:02:35;12.30;;;6.65;;
25381;SDS011;16307;42.896;20.874;2022-12-18T04:05:25;12.32;;;6.90;;
25381;SDS011;16307;42.896;20.874;2022-12-18T04:08:13;14.80;;;7.97;;
25381;SDS011;16307;42.896;20.874;2022-12-18T04:11:05;12.27;;;7.15;;
25381;SDS011;16307;42.896;20.874;2022-12-18T04:13:55;15.80;;;8.45;;
25381;SDS011;16307;42.896;20.874;2022-12-18T04:16:42;13.50;;;7.38;;
25381;SDS011;16307;42.896;20.874;2022-12-18T04:19:32;11.38;;;6.88;;
25381;SDS011;16307;42.896;20.874;2022-12-18T04:22:19;13.32;;;7.55;;
25381;SDS011;16307;42.896;20.874;2022-12-18T04:25:10;11.90;;;7.35;;
25381;SDS011;16307;42.896;20.874;2022-12-18T04:28:04;13.93;;;7.68;;
25381;SDS011;16307;42.896;20.874;2022-12-18T04:30:52;12.88;;;7.85;;
25381;SDS011;16307;42.896;20.874;2022-12-18T04:33:40;15.02;;;7.50;;
25381;SDS011;16307;42.896;20.874;2022-12-18T04:36:27;14.13;;;7.55;;
25381;SDS011;16307;42.896;20.874;2022-12-18T04:39:14;12.25;;;7.35;;
25381;SDS011;16307;42.896;20.874;2022-12-18T04:42:00;12.13;;;7.28;;
25381;SDS011;16307;42.896;20.874;2022-12-18T04:44:46;13.80;;;7.05;;
25381;SDS011;16307;42.896;20.874;2022-12-18T04:47:32;12.98;;;7.82;;
25381;SDS011;16307;42.896;20.874;2022-12-18T04:50:18;16.60;;;7.80;;
25381;SDS011;16307;42.896;20.874;2022-12-18T04:53:04;12.25;;;7.25;;
25381;SDS011;16307;42.896;20.874;2022-12-18T04:55:50;12.23;;;5.95;;
25381;SDS011;16307;42.896;20.874;2022-12-18T04:58:36;13.30;;;7.55;;
25381;SDS011;16307;42.896;20.874;2022-12-18T05:01:24;12.82;;;7.22;;
25381;SDS011;16307;42.896;20.874;2022-12-18T05:04:15;12.63;;;7.15;;
25381;SDS011;16307;42.896;20.874;2022-12-18T05:07:02;13.15;;;7.32;;
25381;SDS011;16307;42.896;20.874;2022-12-18T05:09:47;13.10;;;6.85;;
25381;SDS011;16307;42.896;20.874;2022-12-18T05:12:33;13.77;;;7.35;;
25381;SDS011;16307;42.896;20.874;2022-12-18T05:15:39;10.80;;;6.43;;
25381;SDS011;16307;42.896;20.874;2022-12-18T05:18:28;10.77;;;5.75;;
25381;SDS011;16307;42.896;20.874;2022-12-18T05:21:14;10.77;;;6.85;;
25381;SDS011;16307;42.896;20.874;2022-12-18T05:24:00;12.43;;;6.50;;
25381;SDS011;16307;42.896;20.874;2022-12-18T05:26:46;10.45;;;6.13;;
25381;SDS011;16307;42.896;20.874;2022-12-18T05:29:32;10.25;;;5.82;;
25381;SDS011;16307;42.896;20.874;2022-12-18T05:32:18;11.27;;;6.47;;
25381;SDS011;16307;42.896;20.874;2022-12-18T05:35:04;11.07;;;6.38;;
25381;SDS011;16307;42.896;20.874;2022-12-18T05:37:51;10.45;;;6.03;;
25381;SDS011;16307;42.896;20.874;2022-12-18T05:40:37;8.68;;;5.53;;
25381;SDS011;16307;42.896;20.874;2022-12-18T05:43:28;8.00;;;5.32;;
25381;SDS011;16307;42.896;20.874;2022-12-18T05:46:15;13.85;;;5.90;;
25381;SDS011;16307;42.896;20.874;2022-12-18T05:49:05;11.27;;;6.35;;
25381;SDS011;16307;42.896;20.874;2022-12-18T05:51:51;11.15;;;6.10;;
25381;SDS011;16307;42.896;20.874;2022-12-18T05:54:37;10.32;;;6.00;;
25381;SDS011;16307;42.896;20.874;2022-12-18T05:57:24;8.65;;;5.72;;
25381;SDS011;16307;42.896;20.874;2022-12-18T06:00:10;9.25;;;5.55;;
25381;SDS011;16307;42.896;20.874;2022-12-18T06:02:57;8.18;;;4.85;;
25381;SDS011;16307;42.896;20.874;2022-12-18T06:05:44;12.13;;;5.00;;
25381;SDS011;16307;42.896;20.874;2022-12-18T06:08:31;7.25;;;4.75;;
25381;SDS011;16307;42.896;20.874;2022-12-18T06:11:18;9.90;;;4.38;;
25381;SDS011;16307;42.896;20.874;2022-12-18T06:14:06;7.55;;;4.78;;
25381;SDS011;16307;42.896;20.874;2022-12-18T06:16:52;7.25;;;4.32;;
25381;SDS011;16307;42.896;20.874;2022-12-18T06:19:38;6.72;;;3.92;;
25381;SDS011;16307;42.896;20.874;2022-12-18T06:22:24;8.07;;;4.45;;
25381;SDS011;16307;42.896;20.874;2022-12-18T06:25:11;8.80;;;5.03;;
25381;SDS011;16307;42.896;20.874;2022-12-18T06:27:57;7.03;;;4.47;;
25381;SDS011;16307;42.896;20.874;2022-12-18T06:30:43;7.28;;;4.07;;
25381;SDS011;16307;42.896;20.874;2022-12-18T06:33:31;5.68;;;4.10;;
25381;SDS011;16307;42.896;20.874;2022-12-18T06:36:17;6.78;;;4.47;;
25381;SDS011;16307;42.896;20.874;2022-12-18T06:39:04;7.32;;;4.55;;
25381;SDS011;16307;42.896;20.874;2022-12-18T06:41:50;7.97;;;4.07;;
25381;SDS011;16307;42.896;20.874;2022-12-18T06:44:35;10.50;;;4.57;;
25381;SDS011;16307;42.896;20.874;2022-12-18T06:47:21;10.15;;;4.55;;
25381;SDS011;16307;42.896;20.874;2022-12-18T06:50:07;11.35;;;5.90;;
25381;SDS011;16307;42.896;20.874;2022-12-18T06:52:53;10.70;;;4.65;;
25381;SDS011;16307;42.896;20.874;2022-12-18T06:55:39;6.88;;;4.35;;
25381;SDS011;16307;42.896;20.874;2022-12-18T06:58:26;8.30;;;4.70;;
25381;SDS011;16307;42.896;20.874;2022-12-18T07:01:13;8.55;;;4.85;;
25381;SDS011;16307;42.896;20.874;2022-12-18T07:03:59;6.78;;;4.22;;
25381;SDS011;16307;42.896;20.874;2022-12-18T07:06:45;12.45;;;4.93;;
25381;SDS011;16307;42.896;20.874;2022-12-18T07:09:31;9.73;;;4.95;;
25381;SDS011;16307;42.896;20.874;2022-12-18T07:12:17;6.95;;;4.40;;
25381;SDS011;16307;42.896;20.874;2022-12-18T07:15:03;10.65;;;4.53;;
25381;SDS011;16307;42.896;20.874;2022-12-18T07:17:50;7.60;;;4.25;;
25381;SDS011;16307;42.896;20.874;2022-12-18T07:20:36;7.20;;;4.43;;
25381;SDS011;16307;42.896;20.874;2022-12-18T07:23:22;7.65;;;4.25;;
25381;SDS011;16307;42.896;20.874;2022-12-18T07:26:09;10.02;;;5.22;;
25381;SDS011;16307;42.896;20.874;2022-12-18T07:28:57;8.23;;;4.80;;
25381;SDS011;16307;42.896;20.874;2022-12-18T07:31:43;9.60;;;5.78;;
25381;SDS011;16307;42.896;20.874;2022-12-18T07:34:30;32.75;;;15.35;;
25381;SDS011;16307;42.896;20.874;2022-12-18T07:37:15;16.20;;;9.63;;
25381;SDS011;16307;42.896;20.874;2022-12-18T07:40:01;32.13;;;15.73;;
25381;SDS011;16307;42.896;20.874;2022-12-18T07:42:48;41.97;;;21.40;;
25381;SDS011;16307;42.896;20.874;2022-12-18T07:45:34;44.30;;;22.55;;
25381;SDS011;16307;42.896;20.874;2022-12-18T07:48:20;44.95;;;22.15;;
25381;SDS011;16307;42.896;20.874;2022-12-18T07:51:07;45.60;;;22.52;;
25381;SDS011;16307;42.896;20.874;2022-12-18T07:53:53;46.65;;;22.50;;
25381;SDS011;16307;42.896;20.874;2022-12-18T07:56:38;46.92;;;20.95;;
25381;SDS011;16307;42.896;20.874;2022-12-18T07:59:25;43.78;;;22.45;;
25381;SDS011;16307;42.896;20.874;2022-12-18T08:02:11;44.28;;;21.95;;
25381;SDS011;16307;42.896;20.874;2022-12-18T08:04:57;39.22;;;20.02;;
25381;SDS011;16307;42.896;20.874;2022-12-18T08:07:44;42.45;;;20.88;;
25381;SDS011;16307;42.896;20.874;2022-12-18T08:10:30;39.53;;;19.70;;
25381;SDS011;16307;42.896;20.874;2022-12-18T08:13:16;37.50;;;20.25;;
25381;SDS011;16307;42.896;20.874;2022-12-18T08:16:03;38.00;;;19.67;;
25381;SDS011;16307;42.896;20.874;2022-12-18T08:18:51;39.33;;;20.35;;
25381;SDS011;16307;42.896;20.874;2022-12-18T08:21:37;38.40;;;20.02;;
25381;SDS011;16307;42.896;20.874;2022-12-18T08:24:24;36.83;;;19.65;;
25381;SDS011;16307;42.896;20.874;2022-12-18T08:27:11;42.33;;;21.52;;
25381;SDS011;16307;42.896;20.874;2022-12-18T08:30:13;46.22;;;22.13;;
25381;SDS011;16307;42.896;20.874;2022-12-18T08:32:59;41.70;;;20.35;;
25381;SDS011;16307;42.896;20.874;2022-12-18T08:35:45;39.63;;;20.08;;
25381;SDS011;16307;42.896;20.874;2022-12-18T08:38:32;38.50;;;20.15;;
25381;SDS011;16307;42.896;20.874;2022-12-18T08:41:18;41.67;;;21.92;;
25381;SDS011;16307;42.896;20.874;2022-12-18T08:44:07;40.80;;;20.75;;
25381;SDS011;16307;42.896;20.874;2022-12-18T08:47:11;43.72;;;20.33;;
25381;SDS011;16307;42.896;20.874;2022-12-18T08:49:57;37.72;;;19.33;;
25381;SDS011;16307;42.896;20.874;2022-12-18T08:52:43;44.83;;;20.65;;
25381;SDS011;16307;42.896;20.874;2022-12-18T08:55:30;46.92;;;21.77;;
25381;SDS011;16307;42.896;20.874;2022-12-18T08:58:16;41.22;;;21.38;;
25381;SDS011;16307;42.896;20.874;2022-12-18T09:01:08;42.83;;;21.52;;
25381;SDS011;16307;42.896;20.874;2022-12-18T09:03:56;44.05;;;21.27;;
25381;SDS011;16307;42.896;20.874;2022-12-18T09:06:42;44.38;;;20.83;;
25381;SDS011;16307;42.896;20.874;2022-12-18T09:09:28;45.40;;;21.95;;
25381;SDS011;16307;42.896;20.874;2022-12-18T09:12:14;40.78;;;20.65;;
25381;SDS011;16307;42.896;20.874;2022-12-18T09:15:00;39.58;;;19.05;;
25381;SDS011;16307;42.896;20.874;2022-12-18T09:17:46;43.25;;;21.23;;
25381;SDS011;16307;42.896;20.874;2022-12-18T09:20:32;48.55;;;23.83;;
25381;SDS011;16307;42.896;20.874;2022-12-18T09:23:18;50.58;;;24.65;;
25381;SDS011;16307;42.896;20.874;2022-12-18T09:26:04;49.28;;;23.90;;
25381;SDS011;16307;42.896;20.874;2022-12-18T09:28:50;47.85;;;23.80;;
25381;SDS011;16307;42.896;20.874;2022-12-18T09:31:37;52.90;;;23.88;;
25381;SDS011;16307;42.896;20.874;2022-12-18T09:34:24;52.47;;;25.50;;
25381;SDS011;16307;42.896;20.874;2022-12-18T09:37:09;105.72;;;47.35;;
25381;SDS011;16307;42.896;20.874;2022-12-18T09:39:55;51.22;;;24.60;;
25381;SDS011;16307;42.896;20.874;2022-12-18T09:42:42;49.30;;;24.08;;
25381;SDS011;16307;42.896;20.874;2022-12-18T09:45:41;47.85;;;23.58;;
25381;SDS011;16307;42.896;20.874;2022-12-18T09:48:38;47.75;;;23.70;;
25381;SDS011;16307;42.896;20.874;2022-12-18T09:51:37;45.78;;;22.02;;
25381;SDS011;16307;42.896;20.874;2022-12-18T09:54:30;42.58;;;22.13;;
25381;SDS011;16307;42.896;20.874;2022-12-18T09:57:20;45.85;;;23.05;;
25381;SDS011;16307;42.896;20.874;2022-12-18T10:00:19;51.22;;;24.52;;
25381;SDS011;16307;42.896;20.874;2022-12-18T10:03:11;46.45;;;23.95;;
25381;SDS011;16307;42.896;20.874;2022-12-18T10:14:41;44.90;;;21.48;;
25381;SDS011;16307;42.896;20.874;2022-12-18T10:17:53;48.22;;;24.90;;
25381;SDS011;16307;42.896;20.874;2022-12-18T10:20:52;35.75;;;18.83;;
25381;SDS011;16307;42.896;20.874;2022-12-18T10:23:45;38.38;;;19.42;;
25381;SDS011;16307;42.896;20.874;2022-12-18T10:26:40;42.20;;;20.10;;
25381;SDS011;16307;42.896;20.874;2022-12-18T10:29:27;51.25;;;22.77;;
25381;SDS011;16307;42.896;20.874;2022-12-18T10:32:23;42.70;;;22.58;;
25381;SDS011;16307;42.896;20.874;2022-12-18T10:35:17;29.42;;;14.32;;
25381;SDS011;16307;42.896;20.874;2022-12-18T10:41:04;49.70;;;23.67;;
25381;SDS011;16307;42.896;20.874;2022-12-18T10:44:15;47.45;;;24.20;;
25381;SDS011;16307;42.896;20.874;2022-12-18T10:47:03;23.65;;;12.48;;
25381;SDS011;16307;42.896;20.874;2022-12-18T10:49:56;19.90;;;10.48;;
25381;SDS011;16307;42.896;20.874;2022-12-18T10:52:42;15.88;;;8.52;;
25381;SDS011;16307;42.896;20.874;2022-12-18T10:55:49;20.38;;;9.82;;
25381;SDS011;16307;42.896;20.874;2022-12-18T10:58:38;16.00;;;8.35;;
25381;SDS011;16307;42.896;20.874;2022-12-18T11:01:25;15.23;;;8.05;;
25381;SDS011;16307;42.896;20.874;2022-12-18T11:04:15;15.93;;;8.52;;
25381;SDS011;16307;42.896;20.874;2022-12-18T11:07:07;16.08;;;8.93;;
25381;SDS011;16307;42.896;20.874;2022-12-18T11:10:00;16.77;;;9.15;;
25381;SDS011;16307;42.896;20.874;2022-12-18T11:12:46;15.95;;;8.65;;
25381;SDS011;16307;42.896;20.874;2022-12-18T11:15:33;13.75;;;7.72;;
25381;SDS011;16307;42.896;20.874;2022-12-18T11:18:22;16.50;;;8.75;;
25381;SDS011;16307;42.896;20.874;2022-12-18T11:21:11;16.75;;;8.90;;
25381;SDS011;16307;42.896;20.874;2022-12-18T11:23:58;14.15;;;8.18;;
25381;SDS011;16307;42.896;20.874;2022-12-18T11:26:44;18.40;;;9.82;;
25381;SDS011;16307;42.896;20.874;2022-12-18T11:29:32;18.60;;;8.63;;
25381;SDS011;16307;42.896;20.874;2022-12-18T11:32:31;17.83;;;9.00;;
25381;SDS011;16307;42.896;20.874;2022-12-18T11:35:26;17.38;;;8.95;;
25381;SDS011;16307;42.896;20.874;2022-12-18T11:38:37;19.48;;;8.95;;
25381;SDS011;16307;42.896;20.874;2022-12-18T11:41:38;17.92;;;9.02;;
25381;SDS011;16307;42.896;20.874;2022-12-18T11:51:03;21.05;;;10.30;;
25381;SDS011;16307;42.896;20.874;2022-12-18T11:53:51;20.15;;;10.02;;
25381;SDS011;16307;42.896;20.874;2022-12-18T11:56:39;18.60;;;9.40;;
25381;SDS011;16307;42.896;20.874;2022-12-18T12:11:50;20.33;;;10.35;;
25381;SDS011;16307;42.896;20.874;2022-12-18T12:27:58;18.50;;;9.05;;
25381;SDS011;16307;42.896;20.874;2022-12-18T12:39:56;17.15;;;9.30;;
25381;SDS011;16307;42.896;20.874;2022-12-18T12:43:28;16.90;;;8.85;;
25381;SDS011;16307;42.896;20.874;2022-12-18T12:46:03;17.15;;;8.60;;
25381;SDS011;16307;42.896;20.874;2022-12-18T12:48:57;15.50;;;8.07;;
25381;SDS011;16307;42.896;20.874;2022-12-18T12:51:46;17.35;;;7.65;;
25381;SDS011;16307;42.896;20.874;2022-12-18T12:54:35;15.43;;;8.10;;
25381;SDS011;16307;42.896;20.874;2022-12-18T12:57:36;14.43;;;6.97;;
25381;SDS011;16307;42.896;20.874;2022-12-18T13:00:24;16.15;;;7.82;;
25381;SDS011;16307;42.896;20.874;2022-12-18T13:03:27;15.63;;;6.15;;
25381;SDS011;16307;42.896;20.874;2022-12-18T13:09:31;14.63;;;7.03;;
25381;SDS011;16307;42.896;20.874;2022-12-18T13:12:18;16.92;;;6.90;;
25381;SDS011;16307;42.896;20.874;2022-12-18T13:15:24;15.48;;;6.90;;
25381;SDS011;16307;42.896;20.874;2022-12-18T13:18:14;13.52;;;6.70;;
25381;SDS011;16307;42.896;20.874;2022-12-18T13:21:13;18.13;;;7.63;;
25381;SDS011;16307;42.896;20.874;2022-12-18T13:36:14;20.38;;;9.48;;
25381;SDS011;16307;42.896;20.874;2022-12-18T13:45:37;56.10;;;24.38;;
25381;SDS011;16307;42.896;20.874;2022-12-18T13:48:26;75.93;;;35.83;;
25381;SDS011;16307;42.896;20.874;2022-12-18T13:51:16;64.05;;;29.45;;
25381;SDS011;16307;42.896;20.874;2022-12-18T13:57:22;64.88;;;30.40;;
25381;SDS011;16307;42.896;20.874;2022-12-18T14:00:24;61.53;;;30.70;;
25381;SDS011;16307;42.896;20.874;2022-12-18T14:03:18;66.93;;;30.60;;
25381;SDS011;16307;42.896;20.874;2022-12-18T14:06:07;63.10;;;29.10;;
25381;SDS011;16307;42.896;20.874;2022-12-18T14:08:54;57.25;;;27.70;;
25381;SDS011;16307;42.896;20.874;2022-12-18T14:11:45;70.20;;;32.25;;
25381;SDS011;16307;42.896;20.874;2022-12-18T14:14:32;67.60;;;30.52;;
25381;SDS011;16307;42.896;20.874;2022-12-18T14:17:19;65.68;;;30.67;;
25381;SDS011;16307;42.896;20.874;2022-12-18T14:20:12;64.45;;;29.75;;
25381;SDS011;16307;42.896;20.874;2022-12-18T14:22:59;68.50;;;32.78;;
25381;SDS011;16307;42.896;20.874;2022-12-18T14:25:46;66.07;;;29.77;;
25381;SDS011;16307;42.896;20.874;2022-12-18T14:28:32;57.00;;;25.95;;
25381;SDS011;16307;42.896;20.874;2022-12-18T14:31:19;64.75;;;29.95;;
25381;SDS011;16307;42.896;20.874;2022-12-18T14:34:08;68.82;;;32.80;;
25381;SDS011;16307;42.896;20.874;2022-12-18T14:37:01;66.80;;;31.95;;
25381;SDS011;16307;42.896;20.874;2022-12-18T14:39:57;69.88;;;31.90;;
25381;SDS011;16307;42.896;20.874;2022-12-18T14:42:46;75.72;;;33.28;;
25381;SDS011;16307;42.896;20.874;2022-12-18T14:48:39;70.38;;;30.73;;
25381;SDS011;16307;42.896;20.874;2022-12-18T14:51:27;69.10;;;31.90;;
25381;SDS011;16307;42.896;20.874;2022-12-18T14:54:15;68.20;;;31.73;;
25381;SDS011;16307;42.896;20.874;2022-12-18T14:57:18;69.10;;;30.75;;
25381;SDS011;16307;42.896;20.874;2022-12-18T15:00:14;67.88;;;30.42;;
25381;SDS011;16307;42.896;20.874;2022-12-18T15:03:01;70.95;;;33.95;;
25381;SDS011;16307;42.896;20.874;2022-12-18T15:05:53;83.15;;;37.03;;
25381;SDS011;16307;42.896;20.874;2022-12-18T15:08:39;74.53;;;33.92;;
25381;SDS011;16307;42.896;20.874;2022-12-18T15:14:30;66.88;;;30.70;;
25381;SDS011;16307;42.896;20.874;2022-12-18T15:17:26;70.38;;;34.20;;
25381;SDS011;16307;42.896;20.874;2022-12-18T15:20:12;72.07;;;33.35;;
25381;SDS011;16307;42.896;20.874;2022-12-18T15:22:59;65.53;;;31.65;;
25381;SDS011;16307;42.896;20.874;2022-12-18T15:25:46;73.72;;;33.15;;
25381;SDS011;16307;42.896;20.874;2022-12-18T15:31:33;76.30;;;34.20;;
25381;SDS011;16307;42.896;20.874;2022-12-18T15:34:21;72.38;;;33.58;;
25381;SDS011;16307;42.896;20.874;2022-12-18T15:37:08;70.00;;;32.42;;
25381;SDS011;16307;42.896;20.874;2022-12-18T15:39:54;72.60;;;33.00;;
25381;SDS011;16307;42.896;20.874;2022-12-18T15:42:40;73.25;;;32.78;;
25381;SDS011;16307;42.896;20.874;2022-12-18T15:45:46;70.80;;;32.65;;
25381;SDS011;16307;42.896;20.874;2022-12-18T15:48:33;60.25;;;29.50;;
25381;SDS011;16307;42.896;20.874;2022-12-18T15:51:21;64.40;;;30.45;;
25381;SDS011;16307;42.896;20.874;2022-12-18T15:54:11;67.18;;;31.65;;
25381;SDS011;16307;42.896;20.874;2022-12-18T15:56:58;69.93;;;32.40;;
25381;SDS011;16307;42.896;20.874;2022-12-18T16:00:11;72.47;;;34.42;;
25381;SDS011;16307;42.896;20.874;2022-12-18T16:02:58;82.20;;;38.92;;
25381;SDS011;16307;42.896;20.874;2022-12-18T16:05:44;82.57;;;36.65;;
25381;SDS011;16307;42.896;20.874;2022-12-18T16:08:30;86.10;;;40.63;;
25381;SDS011;16307;42.896;20.874;2022-12-18T16:11:27;86.00;;;41.75;;
25381;SDS011;16307;42.896;20.874;2022-12-18T16:14:27;79.88;;;38.25;;
25381;SDS011;16307;42.896;20.874;2022-12-18T16:17:14;85.95;;;41.13;;
25381;SDS011;16307;42.896;20.874;2022-12-18T16:20:00;81.53;;;39.72;;
25381;SDS011;16307;42.896;20.874;2022-12-18T16:22:47;91.20;;;41.63;;
25381;SDS011;16307;42.896;20.874;2022-12-18T16:25:33;86.00;;;39.40;;
25381;SDS011;16307;42.896;20.874;2022-12-18T16:28:19;77.03;;;37.28;;
25381;SDS011;16307;42.896;20.874;2022-12-18T16:31:06;89.75;;;42.75;;
25381;SDS011;16307;42.896;20.874;2022-12-18T16:34:12;78.85;;;38.58;;
25381;SDS011;16307;42.896;20.874;2022-12-18T16:37:00;74.95;;;35.95;;
25381;SDS011;16307;42.896;20.874;2022-12-18T16:39:51;77.53;;;37.08;;
25381;SDS011;16307;42.896;20.874;2022-12-18T16:42:37;71.93;;;34.53;;
25381;SDS011;16307;42.896;20.874;2022-12-18T16:45:25;72.55;;;33.83;;
25381;SDS011;16307;42.896;20.874;2022-12-18T16:48:11;68.30;;;33.85;;
25381;SDS011;16307;42.896;20.874;2022-12-18T16:51:01;67.00;;;33.10;;
25381;SDS011;16307;42.896;20.874;2022-12-18T16:53:48;64.20;;;29.60;;
25381;SDS011;16307;42.896;20.874;2022-12-18T16:56:34;63.75;;;29.92;;
25381;SDS011;16307;42.896;20.874;2022-12-18T16:59:20;60.80;;;28.65;;
25381;SDS011;16307;42.896;20.874;2022-12-18T17:02:14;72.43;;;34.53;;
25381;SDS011;16307;42.896;20.874;2022-12-18T17:05:02;70.95;;;34.17;;
25381;SDS011;16307;42.896;20.874;2022-12-18T17:07:49;74.10;;;36.25;;
25381;SDS011;16307;42.896;20.874;2022-12-18T17:10:34;78.55;;;35.60;;
25381;SDS011;16307;42.896;20.874;2022-12-18T17:13:22;71.88;;;33.17;;
25381;SDS011;16307;42.896;20.874;2022-12-18T17:16:10;72.70;;;35.22;;
25381;SDS011;16307;42.896;20.874;2022-12-18T17:18:56;72.05;;;33.30;;
25381;SDS011;16307;42.896;20.874;2022-12-18T17:21:52;81.28;;;37.45;;
25381;SDS011;16307;42.896;20.874;2022-12-18T17:24:38;77.40;;;36.65;;
25381;SDS011;16307;42.896;20.874;2022-12-18T17:27:24;77.70;;;34.58;;
25381;SDS011;16307;42.896;20.874;2022-12-18T17:30:10;76.85;;;35.85;;
25381;SDS011;16307;42.896;20.874;2022-12-18T17:32:56;65.90;;;30.45;;
25381;SDS011;16307;42.896;20.874;2022-12-18T17:35:42;71.97;;;37.28;;
25381;SDS011;16307;42.896;20.874;2022-12-18T17:38:29;70.80;;;35.83;;
25381;SDS011;16307;42.896;20.874;2022-12-18T17:41:15;84.47;;;40.95;;
25381;SDS011;16307;42.896;20.874;2022-12-18T17:44:02;77.95;;;36.90;;
25381;SDS011;16307;42.896;20.874;2022-12-18T17:46:50;72.47;;;34.75;;
25381;SDS011;16307;42.896;20.874;2022-12-18T17:49:36;71.53;;;35.10;;
25381;SDS011;16307;42.896;20.874;2022-12-18T17:52:23;67.65;;;33.67;;
25381;SDS011;16307;42.896;20.874;2022-12-18T17:55:09;65.50;;;32.38;;
25381;SDS011;16307;42.896;20.874;2022-12-18T17:57:56;65.45;;;31.77;;
25381;SDS011;16307;42.896;20.874;2022-12-18T18:00:42;68.30;;;32.53;;
25381;SDS011;16307;42.896;20.874;2022-12-18T18:03:28;63.58;;;30.42;;
25381;SDS011;16307;42.896;20.874;2022-12-18T18:06:15;62.97;;;31.02;;
25381;SDS011;16307;42.896;20.874;2022-12-18T18:09:01;58.67;;;29.25;;
25381;SDS011;16307;42.896;20.874;2022-12-18T18:11:47;63.22;;;30.63;;
25381;SDS011;16307;42.896;20.874;2022-12-18T18:14:51;64.15;;;33.00;;
25381;SDS011;16307;42.896;20.874;2022-12-18T18:17:37;60.67;;;29.83;;
25381;SDS011;16307;42.896;20.874;2022-12-18T18:20:23;64.15;;;30.58;;
25381;SDS011;16307;42.896;20.874;2022-12-18T18:23:10;56.70;;;27.58;;
25381;SDS011;16307;42.896;20.874;2022-12-18T18:26:01;67.82;;;32.45;;
25381;SDS011;16307;42.896;20.874;2022-12-18T18:28:52;57.83;;;27.88;;
25381;SDS011;16307;42.896;20.874;2022-12-18T18:31:39;66.70;;;30.58;;